sensor_id;sensor_type;location;lat;lon;timestamp;pressure;altitude;pressure_sealevel;temperature;humidity
13478;BME280;12598;62.382;17.344;2022-11-15T00:00:12;102054.38;;;20.36;28.42
13478;BME280;12598;62.382;17.344;2022-11-15T00:01:33;102074.50;;;20.41;28.88
13478;BME280;12598;62.382;17.344;2022-11-15T00:02:54;102067.38;;;20.40;28.66
13478;BME280;12598;62.382;17.344;2022-11-15T00:04:14;102078.13;;;20.40;28.90
13478;BME280;12598;62.382;17.344;2022-11-15T00:05:35;102064.97;;;20.37;28.28
13478;BME280;12598;62.382;17.344;2022-11-15T00:06:56;102064.25;;;20.35;28.47
13478;BME280;12598;62.382;17.344;2022-11-15T00:08:16;102069.34;;;20.38;28.49
13478;BME280;12598;62.382;17.344;2022-11-15T00:09:37;102073.03;;;20.37;28.34
13478;BME280;12598;62.382;17.344;2022-11-15T00:11:04;102073.88;;;20.38;28.21
13478;BME280;12598;62.382;17.344;2022-11-15T00:12:27;102075.13;;;20.34;28.44
13478;BME280;12598;62.382;17.344;2022-11-15T00:13:47;102082.94;;;20.37;28.23
13478;BME280;12598;62.382;17.344;2022-11-15T00:15:08;102081.22;;;20.36;28.09
13478;BME280;12598;62.382;17.344;2022-11-15T00:16:28;102082.59;;;20.30;28.42
13478;BME280;12598;62.382;17.344;2022-11-15T00:17:49;102081.88;;;20.28;28.59
13478;BME280;12598;62.382;17.344;2022-11-15T00:19:09;102094.94;;;20.33;28.51
13478;BME280;12598;62.382;17.344;2022-11-15T00:20:30;102086.88;;;20.33;28.33
13478;BME280;12598;62.382;17.344;2022-11-15T00:21:50;102096.75;;;20.32;28.42
13478;BME280;12598;62.382;17.344;2022-11-15T00:23:11;102080.16;;;20.27;28.43
13478;BME280;12598;62.382;17.344;2022-11-15T00:24:31;102093.22;;;20.32;28.38
13478;BME280;12598;62.382;17.344;2022-11-15T00:26:00;102091.91;;;20.26;28.49
13478;BME280;12598;62.382;17.344;2022-11-15T00:27:20;102100.56;;;20.30;28.43
13478;BME280;12598;62.382;17.344;2022-11-15T00:28:41;102098.50;;;20.22;28.76
13478;BME280;12598;62.382;17.344;2022-11-15T00:30:02;102113.72;;;20.33;28.73
13478;BME280;12598;62.382;17.344;2022-11-15T00:31:22;102102.38;;;20.29;28.62
13478;BME280;12598;62.382;17.344;2022-11-15T00:32:43;102107.75;;;20.29;28.35
13478;BME280;12598;62.382;17.344;2022-11-15T00:34:03;102095.81;;;20.22;28.28
13478;BME280;12598;62.382;17.344;2022-11-15T00:35:23;102113.13;;;20.29;28.41
13478;BME280;12598;62.382;17.344;2022-11-15T00:36:43;102096.81;;;20.21;28.89
13478;BME280;12598;62.382;17.344;2022-11-15T00:38:04;102115.09;;;20.27;28.29
13478;BME280;12598;62.382;17.344;2022-11-15T00:39:24;102112.41;;;20.27;28.18
13478;BME280;12598;62.382;17.344;2022-11-15T00:40:44;102100.47;;;20.20;28.68
13478;BME280;12598;62.382;17.344;2022-11-15T00:42:05;102115.09;;;20.27;28.13
13478;BME280;12598;62.382;17.344;2022-11-15T00:43:25;102121.44;;;20.26;28.47
13478;BME280;12598;62.382;17.344;2022-11-15T00:44:45;102107.81;;;20.18;28.73
13478;BME280;12598;62.382;17.344;2022-11-15T00:46:05;102117.06;;;20.25;28.22
13478;BME280;12598;62.382;17.344;2022-11-15T00:47:26;102124.13;;;20.26;28.65
13478;BME280;12598;62.382;17.344;2022-11-15T00:48:46;102110.63;;;20.17;28.50
13478;BME280;12598;62.382;17.344;2022-11-15T00:50:06;102129.50;;;20.26;28.55
13478;BME280;12598;62.382;17.344;2022-11-15T00:51:33;102130.47;;;20.25;28.31
13478;BME280;12598;62.382;17.344;2022-11-15T00:52:53;102138.53;;;20.25;28.34
13478;BME280;12598;62.382;17.344;2022-11-15T00:54:13;102137.97;;;20.22;28.50
13478;BME280;12598;62.382;17.344;2022-11-15T00:55:33;102122.69;;;20.22;28.51
13478;BME280;12598;62.382;17.344;2022-11-15T00:56:53;102131.72;;;20.21;28.56
13478;BME280;12598;62.382;17.344;2022-11-15T00:58:14;102133.44;;;20.22;28.52
13478;BME280;12598;62.382;17.344;2022-11-15T00:59:34;102134.41;;;20.21;28.43
13478;BME280;12598;62.382;17.344;2022-11-15T01:00:55;102131.84;;;20.20;28.81
13478;BME280;12598;62.382;17.344;2022-11-15T01:02:15;102137.22;;;20.20;28.41
13478;BME280;12598;62.382;17.344;2022-11-15T01:03:36;102143.44;;;20.20;28.33
13478;BME280;12598;62.382;17.344;2022-11-15T01:04:57;102130.53;;;20.14;28.47
13478;BME280;12598;62.382;17.344;2022-11-15T01:06:17;102145.41;;;20.18;28.53
13478;BME280;12598;62.382;17.344;2022-11-15T01:07:37;102144.81;;;20.15;28.62
13478;BME280;12598;62.382;17.344;2022-11-15T01:08:58;102156.88;;;20.20;28.35
13478;BME280;12598;62.382;17.344;2022-11-15T01:10:18;102153.97;;;20.12;28.58
13478;BME280;12598;62.382;17.344;2022-11-15T01:11:39;102154.72;;;20.14;28.81
13478;BME280;12598;62.382;17.344;2022-11-15T01:13:00;102155.44;;;20.16;28.79
13478;BME280;12598;62.382;17.344;2022-11-15T01:14:21;102155.53;;;20.15;28.70
13478;BME280;12598;62.382;17.344;2022-11-15T01:15:44;102165.91;;;20.19;28.52
13478;BME280;12598;62.382;17.344;2022-11-15T01:17:05;102157.25;;;20.16;28.57
13478;BME280;12598;62.382;17.344;2022-11-15T01:18:25;102167.88;;;20.17;29.15
13478;BME280;12598;62.382;17.344;2022-11-15T01:19:45;102168.72;;;20.18;28.42
13478;BME280;12598;62.382;17.344;2022-11-15T01:21:15;102166.19;;;20.16;28.83
13478;BME280;12598;62.382;17.344;2022-11-15T01:22:36;102171.41;;;20.18;28.58
13478;BME280;12598;62.382;17.344;2022-11-15T01:23:56;102171.53;;;20.16;28.40
13478;BME280;12598;62.382;17.344;2022-11-15T01:25:17;102159.47;;;20.11;28.23
13478;BME280;12598;62.382;17.344;2022-11-15T01:26:36;102161.31;;;20.10;28.48
13478;BME280;12598;62.382;17.344;2022-11-15T01:27:57;102162.03;;;20.12;28.56
13478;BME280;12598;62.382;17.344;2022-11-15T01:29:17;102165.56;;;20.13;28.47
13478;BME280;12598;62.382;17.344;2022-11-15T01:30:37;102170.81;;;20.14;28.61
13478;BME280;12598;62.382;17.344;2022-11-15T01:31:58;102159.63;;;20.09;28.60
13478;BME280;12598;62.382;17.344;2022-11-15T01:33:18;102161.31;;;20.10;28.76
13478;BME280;12598;62.382;17.344;2022-11-15T01:34:38;102148.97;;;20.08;28.66
13478;BME280;12598;62.382;17.344;2022-11-15T01:36:03;102156.94;;;20.09;28.39
13478;BME280;12598;62.382;17.344;2022-11-15T01:37:23;102161.06;;;20.13;28.62
13478;BME280;12598;62.382;17.344;2022-11-15T01:38:44;102168.13;;;20.14;28.82
13478;BME280;12598;62.382;17.344;2022-11-15T01:40:05;102153.88;;;20.03;28.73
13478;BME280;12598;62.382;17.344;2022-11-15T01:41:31;102169.22;;;20.12;28.08
13478;BME280;12598;62.382;17.344;2022-11-15T01:42:52;102164.59;;;20.14;28.18
13478;BME280;12598;62.382;17.344;2022-11-15T01:46:01;102173.38;;;20.16;28.31
13478;BME280;12598;62.382;17.344;2022-11-15T01:47:46;102164.94;;;20.20;28.07
13478;BME280;12598;62.382;17.344;2022-11-15T01:49:14;102165.19;;;20.17;28.43
13478;BME280;12598;62.382;17.344;2022-11-15T01:50:35;102169.13;;;20.13;28.08
13478;BME280;12598;62.382;17.344;2022-11-15T01:51:56;102172.06;;;20.10;28.32
13478;BME280;12598;62.382;17.344;2022-11-15T01:53:17;102162.81;;;20.03;28.24
13478;BME280;12598;62.382;17.344;2022-11-15T01:54:39;102172.91;;;20.11;28.44
13478;BME280;12598;62.382;17.344;2022-11-15T01:56:02;102158.41;;;20.02;28.09
13478;BME280;12598;62.382;17.344;2022-11-15T01:57:24;102166.81;;;20.09;28.62
13478;BME280;12598;62.382;17.344;2022-11-15T01:58:45;102159.41;;;20.01;28.49
13478;BME280;12598;62.382;17.344;2022-11-15T02:00:06;102173.16;;;20.08;28.36
13478;BME280;12598;62.382;17.344;2022-11-15T02:01:28;102168.44;;;20.00;28.31
13478;BME280;12598;62.382;17.344;2022-11-15T02:02:49;102172.16;;;20.09;28.17
13478;BME280;12598;62.382;17.344;2022-11-15T02:04:15;102183.91;;;20.08;28.12
13478;BME280;12598;62.382;17.344;2022-11-15T02:05:37;102175.00;;;20.07;28.46
13478;BME280;12598;62.382;17.344;2022-11-15T02:06:58;102178.66;;;20.06;28.66
13478;BME280;12598;62.382;17.344;2022-11-15T02:08:19;102175.09;;;20.06;27.95
13478;BME280;12598;62.382;17.344;2022-11-15T02:09:42;102176.09;;;20.05;28.68
13478;BME280;12598;62.382;17.344;2022-11-15T02:11:07;102173.56;;;20.03;28.30
13478;BME280;12598;62.382;17.344;2022-11-15T02:12:27;102176.97;;;20.05;28.30
13478;BME280;12598;62.382;17.344;2022-11-15T02:13:50;102185.84;;;20.06;28.56
13478;BME280;12598;62.382;17.344;2022-11-15T02:15:11;102186.97;;;20.03;28.35
13478;BME280;12598;62.382;17.344;2022-11-15T02:18:36;102177.69;;;20.07;28.34
13478;BME280;12598;62.382;17.344;2022-11-15T02:22:14;102183.63;;;20.11;27.57
13478;BME280;12598;62.382;17.344;2022-11-15T02:27:00;102191.13;;;20.07;28.55
13478;BME280;12598;62.382;17.344;2022-11-15T02:31:03;102189.63;;;20.14;28.38
13478;BME280;12598;62.382;17.344;2022-11-15T02:32:40;102189.88;;;20.11;27.76
13478;BME280;12598;62.382;17.344;2022-11-15T02:36:00;102192.94;;;20.07;28.19
13478;BME280;12598;62.382;17.344;2022-11-15T02:38:54;102189.53;;;19.94;28.15
13478;BME280;12598;62.382;17.344;2022-11-15T02:41:57;102204.50;;;19.96;27.99
13478;BME280;12598;62.382;17.344;2022-11-15T02:43:31;102206.34;;;19.96;28.15
13478;BME280;12598;62.382;17.344;2022-11-15T02:45:22;102194.75;;;19.95;28.25
13478;BME280;12598;62.382;17.344;2022-11-15T02:46:49;102201.09;;;19.94;27.96
13478;BME280;12598;62.382;17.344;2022-11-15T02:48:31;102196.44;;;19.96;28.21
13478;BME280;12598;62.382;17.344;2022-11-15T02:49:53;102195.63;;;19.96;28.27
13478;BME280;12598;62.382;17.344;2022-11-15T02:51:17;102196.97;;;19.90;27.96
13478;BME280;12598;62.382;17.344;2022-11-15T02:52:38;102193.53;;;19.88;28.03
13478;BME280;12598;62.382;17.344;2022-11-15T02:53:58;102192.72;;;19.88;28.07
13478;BME280;12598;62.382;17.344;2022-11-15T02:56:47;102195.25;;;19.89;28.11
13478;BME280;12598;62.382;17.344;2022-11-15T02:59:53;102189.63;;;19.92;28.22
13478;BME280;12598;62.382;17.344;2022-11-15T03:05:44;102201.34;;;19.91;27.63
13478;BME280;12598;62.382;17.344;2022-11-15T03:07:14;102204.91;;;19.92;27.73
13478;BME280;12598;62.382;17.344;2022-11-15T03:09:20;102207.81;;;20.00;28.19
13478;BME280;12598;62.382;17.344;2022-11-15T03:14:01;102207.44;;;19.93;27.76
13478;BME280;12598;62.382;17.344;2022-11-15T03:15:32;102208.41;;;19.92;27.77
13478;BME280;12598;62.382;17.344;2022-11-15T03:17:12;102214.66;;;19.93;27.82
13478;BME280;12598;62.382;17.344;2022-11-15T03:18:41;102214.78;;;19.91;28.17
13478;BME280;12598;62.382;17.344;2022-11-15T03:20:05;102216.00;;;19.87;27.81
13478;BME280;12598;62.382;17.344;2022-11-15T03:21:28;102224.06;;;19.87;27.76
13478;BME280;12598;62.382;17.344;2022-11-15T03:22:50;102218.69;;;19.87;27.80
13478;BME280;12598;62.382;17.344;2022-11-15T03:24:14;102205.28;;;19.76;28.21
13478;BME280;12598;62.382;17.344;2022-11-15T03:25:44;102217.97;;;19.85;28.17
13478;BME280;12598;62.382;17.344;2022-11-15T03:27:07;102217.97;;;19.85;27.78
13478;BME280;12598;62.382;17.344;2022-11-15T03:28:37;102218.94;;;19.84;27.84
13478;BME280;12598;62.382;17.344;2022-11-15T03:30:00;102214.44;;;19.85;27.68
13478;BME280;12598;62.382;17.344;2022-11-15T03:31:23;102210.41;;;19.79;27.96
13478;BME280;12598;62.382;17.344;2022-11-15T03:33:10;102229.44;;;19.87;28.08
13478;BME280;12598;62.382;17.344;2022-11-15T03:34:39;102229.56;;;19.86;27.76
13478;BME280;12598;62.382;17.344;2022-11-15T03:36:00;102232.09;;;19.87;27.97
13478;BME280;12598;62.382;17.344;2022-11-15T03:37:26;102231.63;;;19.82;27.80
13478;BME280;12598;62.382;17.344;2022-11-15T03:38:48;102229.66;;;19.84;28.13
13478;BME280;12598;62.382;17.344;2022-11-15T03:40:09;102225.06;;;19.75;27.88
13478;BME280;12598;62.382;17.344;2022-11-15T03:41:41;102234.31;;;19.82;28.10
13478;BME280;12598;62.382;17.344;2022-11-15T03:43:13;102237.72;;;19.84;27.73
13478;BME280;12598;62.382;17.344;2022-11-15T03:44:49;102238.44;;;19.86;27.58
13478;BME280;12598;62.382;17.344;2022-11-15T03:46:19;102231.03;;;19.79;27.86
13478;BME280;12598;62.382;17.344;2022-11-15T03:47:49;102230.78;;;19.82;27.86
13478;BME280;12598;62.382;17.344;2022-11-15T03:49:49;102223.09;;;19.77;27.45
13478;BME280;12598;62.382;17.344;2022-11-15T03:51:02;102242.84;;;19.87;27.66
13478;BME280;12598;62.382;17.344;2022-11-15T03:52:23;102234.47;;;19.81;27.74
13478;BME280;12598;62.382;17.344;2022-11-15T03:53:45;102244.31;;;19.80;27.57
13478;BME280;12598;62.382;17.344;2022-11-15T03:55:08;102235.78;;;19.75;27.91
13478;BME280;12598;62.382;17.344;2022-11-15T03:56:28;102228.72;;;19.74;27.95
13478;BME280;12598;62.382;17.344;2022-11-15T03:57:51;102233.94;;;19.76;27.98
13478;BME280;12598;62.382;17.344;2022-11-15T03:59:12;102227.47;;;19.78;27.69
13478;BME280;12598;62.382;17.344;2022-11-15T04:00:33;102218.22;;;19.71;27.59
13478;BME280;12598;62.382;17.344;2022-11-15T04:01:53;102233.84;;;19.77;27.61
13478;BME280;12598;62.382;17.344;2022-11-15T04:03:13;102230.28;;;19.77;28.28
13478;BME280;12598;62.382;17.344;2022-11-15T04:04:34;102228.47;;;19.77;27.97
13478;BME280;12598;62.382;17.344;2022-11-15T04:05:54;102224.19;;;19.75;28.08
13478;BME280;12598;62.382;17.344;2022-11-15T04:07:14;102225.06;;;19.75;28.18
13478;BME280;12598;62.382;17.344;2022-11-15T04:08:34;102221.38;;;19.76;27.58
13478;BME280;12598;62.382;17.344;2022-11-15T04:09:54;102213.09;;;19.68;27.76
13478;BME280;12598;62.382;17.344;2022-11-15T04:11:23;102207.75;;;19.68;27.47
13478;BME280;12598;62.382;17.344;2022-11-15T04:12:45;102221.50;;;19.75;27.96
13478;BME280;12598;62.382;17.344;2022-11-15T04:14:07;102221.38;;;19.76;27.94
13478;BME280;12598;62.382;17.344;2022-11-15T04:15:27;102204.06;;;19.69;27.74
13478;BME280;12598;62.382;17.344;2022-11-15T04:16:48;102220.78;;;19.73;27.91
13478;BME280;12598;62.382;17.344;2022-11-15T04:18:08;102217.50;;;19.69;27.79
13478;BME280;12598;62.382;17.344;2022-11-15T04:19:29;102227.84;;;19.74;28.09
13478;BME280;12598;62.382;17.344;2022-11-15T04:21:08;102229.34;;;19.78;27.91
13478;BME280;12598;62.382;17.344;2022-11-15T04:22:47;102224.19;;;19.75;27.39
13478;BME280;12598;62.382;17.344;2022-11-15T04:24:26;102220.03;;;19.71;27.64
13478;BME280;12598;62.382;17.344;2022-11-15T04:25:51;102239.44;;;19.74;27.64
13478;BME280;12598;62.382;17.344;2022-11-15T04:27:12;102236.63;;;19.76;28.12
13478;BME280;12598;62.382;17.344;2022-11-15T04:28:33;102241.25;;;19.74;28.13
13478;BME280;12598;62.382;17.344;2022-11-15T04:29:53;102223.97;;;19.56;27.65
13478;BME280;12598;62.382;17.344;2022-11-15T04:31:13;102243.22;;;19.72;27.76
13478;BME280;12598;62.382;17.344;2022-11-15T04:32:34;102239.69;;;19.71;27.66
13478;BME280;12598;62.382;17.344;2022-11-15T04:33:55;102247.84;;;19.70;27.28
13478;BME280;12598;62.382;17.344;2022-11-15T04:35:15;102244.19;;;19.71;27.38
13478;BME280;12598;62.382;17.344;2022-11-15T04:36:35;102254.09;;;19.70;27.71
13478;BME280;12598;62.382;17.344;2022-11-15T04:38:14;102249.31;;;19.74;27.85
13478;BME280;12598;62.382;17.344;2022-11-15T04:39:34;102248.47;;;19.73;27.52
13478;BME280;12598;62.382;17.344;2022-11-15T04:40:55;102243.84;;;19.64;27.77
13478;BME280;12598;62.382;17.344;2022-11-15T04:42:15;102252.63;;;19.66;27.71
13478;BME280;12598;62.382;17.344;2022-11-15T04:43:35;102250.69;;;19.68;27.98
13478;BME280;12598;62.382;17.344;2022-11-15T04:44:55;102255.06;;;19.69;28.00
13478;BME280;12598;62.382;17.344;2022-11-15T04:46:16;102250.19;;;19.63;27.47
13478;BME280;12598;62.382;17.344;2022-11-15T04:47:36;102255.19;;;19.68;27.54
13478;BME280;12598;62.382;17.344;2022-11-15T04:48:57;102253.38;;;19.68;27.80
13478;BME280;12598;62.382;17.344;2022-11-15T04:50:18;102255.19;;;19.68;27.39
13478;BME280;12598;62.382;17.344;2022-11-15T04:51:38;102252.63;;;19.66;27.50
13478;BME280;12598;62.382;17.344;2022-11-15T04:52:59;102251.16;;;19.62;27.43
13478;BME280;12598;62.382;17.344;2022-11-15T04:54:19;102262.50;;;19.66;27.72
13478;BME280;12598;62.382;17.344;2022-11-15T04:55:39;102258.00;;;19.66;27.41
13478;BME280;12598;62.382;17.344;2022-11-15T04:57:00;102253.97;;;19.61;27.47
13478;BME280;12598;62.382;17.344;2022-11-15T04:58:20;102262.50;;;19.66;27.77
13478;BME280;12598;62.382;17.344;2022-11-15T04:59:40;102256.53;;;19.62;27.34
13478;BME280;12598;62.382;17.344;2022-11-15T05:01:08;102268.72;;;19.66;28.07
13478;BME280;12598;62.382;17.344;2022-11-15T05:02:29;102270.44;;;19.67;27.76
13478;BME280;12598;62.382;17.344;2022-11-15T05:04:09;102272.16;;;19.68;27.66
13478;BME280;12598;62.382;17.344;2022-11-15T05:05:41;102272.16;;;19.68;27.46
13478;BME280;12598;62.382;17.344;2022-11-15T05:07:01;102270.69;;;19.64;27.40
13478;BME280;12598;62.382;17.344;2022-11-15T05:08:25;102263.84;;;19.60;27.45
13478;BME280;12598;62.382;17.344;2022-11-15T05:09:45;102275.31;;;19.62;27.02
13478;BME280;12598;62.382;17.344;2022-11-15T05:11:05;102272.50;;;19.64;27.53
13478;BME280;12598;62.382;17.344;2022-11-15T05:12:25;102264.31;;;19.54;27.41
13478;BME280;12598;62.382;17.344;2022-11-15T05:13:46;102257.97;;;19.55;27.50
13478;BME280;12598;62.382;17.344;2022-11-15T05:15:07;102269.47;;;19.57;27.60
13478;BME280;12598;62.382;17.344;2022-11-15T05:16:27;102266.78;;;19.57;27.52
13478;BME280;12598;62.382;17.344;2022-11-15T05:17:46;102268.59;;;19.57;27.62
13478;BME280;12598;62.382;17.344;2022-11-15T05:19:07;102280.94;;;19.59;27.49
13478;BME280;12598;62.382;17.344;2022-11-15T05:20:27;102285.19;;;19.62;27.46
13478;BME280;12598;62.382;17.344;2022-11-15T05:21:48;102292.41;;;19.61;27.68
13478;BME280;12598;62.382;17.344;2022-11-15T05:23:08;102266.88;;;19.45;27.17
13478;BME280;12598;62.382;17.344;2022-11-15T05:24:28;102275.91;;;19.55;27.41
13478;BME280;12598;62.382;17.344;2022-11-15T05:25:48;102292.41;;;19.61;27.55
13478;BME280;12598;62.382;17.344;2022-11-15T05:27:09;102293.38;;;19.60;27.92
13478;BME280;12598;62.382;17.344;2022-11-15T05:28:29;102297.03;;;19.59;27.23
13478;BME280;12598;62.382;17.344;2022-11-15T05:29:50;102294.34;;;19.59;27.53
13478;BME280;12598;62.382;17.344;2022-11-15T05:31:13;102278.69;;;19.53;27.35
13478;BME280;12598;62.382;17.344;2022-11-15T05:32:33;102292.84;;;19.55;27.46
13478;BME280;12598;62.382;17.344;2022-11-15T05:33:55;102297.03;;;19.59;27.24
13478;BME280;12598;62.382;17.344;2022-11-15T05:35:34;102301.19;;;19.63;27.60
13478;BME280;12598;62.382;17.344;2022-11-15T05:36:57;102281.63;;;19.50;27.23
13478;BME280;12598;62.382;17.344;2022-11-15T05:38:17;102289.34;;;19.55;27.32
13478;BME280;12598;62.382;17.344;2022-11-15T05:39:37;102311.28;;;19.60;27.55
13478;BME280;12598;62.382;17.344;2022-11-15T05:40:57;102319.47;;;19.58;27.59
13478;BME280;12598;62.382;17.344;2022-11-15T05:42:17;102316.78;;;19.58;27.34
13478;BME280;12598;62.382;17.344;2022-11-15T05:43:39;102309.72;;;19.57;27.24
13478;BME280;12598;62.382;17.344;2022-11-15T05:45:02;102323.13;;;19.57;27.49
13478;BME280;12598;62.382;17.344;2022-11-15T05:46:24;102323.13;;;19.57;27.18
13478;BME280;12598;62.382;17.344;2022-11-15T05:47:44;102318.59;;;19.58;27.63
13478;BME280;12598;62.382;17.344;2022-11-15T05:49:07;102323.47;;;19.53;27.38
13478;BME280;12598;62.382;17.344;2022-11-15T05:50:29;102332.91;;;19.58;27.20
13478;BME280;12598;62.382;17.344;2022-11-15T05:51:51;102328.50;;;19.57;27.16
13478;BME280;12598;62.382;17.344;2022-11-15T05:53:13;102331.19;;;19.57;27.25
13478;BME280;12598;62.382;17.344;2022-11-15T05:54:35;102338.25;;;19.58;27.20
13478;BME280;12598;62.382;17.344;2022-11-15T05:55:56;102335.78;;;19.55;27.19
13478;BME280;12598;62.382;17.344;2022-11-15T05:57:16;102339.22;;;19.57;27.10
13478;BME280;12598;62.382;17.344;2022-11-15T05:58:37;102348.25;;;19.56;27.26
13478;BME280;12598;62.382;17.344;2022-11-15T05:59:57;102344.72;;;19.56;27.46
13478;BME280;12598;62.382;17.344;2022-11-15T06:01:18;102334.44;;;19.50;27.37
13478;BME280;12598;62.382;17.344;2022-11-15T06:02:38;102344.81;;;19.54;27.22
13478;BME280;12598;62.382;17.344;2022-11-15T06:03:59;102346.41;;;19.57;27.46
13478;BME280;12598;62.382;17.344;2022-11-15T06:05:19;102348.25;;;19.56;27.61
13478;BME280;12598;62.382;17.344;2022-11-15T06:06:39;102350.94;;;19.56;27.23
13478;BME280;12598;62.382;17.344;2022-11-15T06:08:00;102338.84;;;19.51;27.13
13478;BME280;12598;62.382;17.344;2022-11-15T06:09:20;102341.63;;;19.49;27.38
13478;BME280;12598;62.382;17.344;2022-11-15T06:10:41;102354.34;;;19.58;27.35
13478;BME280;12598;62.382;17.344;2022-11-15T06:12:01;102342.38;;;19.51;27.42
13478;BME280;12598;62.382;17.344;2022-11-15T06:13:21;102357.03;;;19.58;27.50
13478;BME280;12598;62.382;17.344;2022-11-15T06:14:42;102347.38;;;19.56;27.05
13478;BME280;12598;62.382;17.344;2022-11-15T06:16:02;102354.97;;;19.62;27.32
13478;BME280;12598;62.382;17.344;2022-11-15T06:17:22;102365.22;;;19.68;26.86
13478;BME280;12598;62.382;17.344;2022-11-15T06:18:43;102361.56;;;19.69;27.01
13478;BME280;12598;62.382;17.344;2022-11-15T06:20:03;102366.34;;;19.76;27.00
13478;BME280;12598;62.382;17.344;2022-11-15T06:21:24;102360.09;;;19.76;27.22
13478;BME280;12598;62.382;17.344;2022-11-15T06:22:43;102364.13;;;19.81;27.14
13478;BME280;12598;62.382;17.344;2022-11-15T06:24:04;102370.00;;;19.86;27.06
13478;BME280;12598;62.382;17.344;2022-11-15T06:25:26;102352.44;;;19.82;26.53
13478;BME280;12598;62.382;17.344;2022-11-15T06:26:46;102369.28;;;19.95;26.60
13478;BME280;12598;62.382;17.344;2022-11-15T06:28:06;102367.22;;;19.99;26.92
13478;BME280;12598;62.382;17.344;2022-11-15T06:29:27;102376.66;;;20.04;26.60
13478;BME280;12598;62.382;17.344;2022-11-15T06:30:47;102372.75;;;20.08;26.87
13478;BME280;12598;62.382;17.344;2022-11-15T06:32:12;102373.22;;;20.13;26.83
13478;BME280;12598;62.382;17.344;2022-11-15T06:33:32;102365.28;;;20.12;26.87
13478;BME280;12598;62.382;17.344;2022-11-15T06:34:53;102371.03;;;20.18;26.92
13478;BME280;12598;62.382;17.344;2022-11-15T06:36:13;102373.22;;;20.24;26.25
13478;BME280;12598;62.382;17.344;2022-11-15T06:37:37;102380.69;;;20.32;25.93
13478;BME280;12598;62.382;17.344;2022-11-15T06:38:57;102386.63;;;20.35;26.39
13478;BME280;12598;62.382;17.344;2022-11-15T06:40:17;102384.44;;;20.40;25.95
13478;BME280;12598;62.382;17.344;2022-11-15T06:41:37;102389.59;;;20.43;25.86
13478;BME280;12598;62.382;17.344;2022-11-15T06:42:59;102387.63;;;20.45;26.23
13478;BME280;12598;62.382;17.344;2022-11-15T06:44:19;102382.25;;;20.45;26.05
13478;BME280;12598;62.382;17.344;2022-11-15T06:45:39;102392.25;;;20.54;26.30
13478;BME280;12598;62.382;17.344;2022-11-15T06:47:00;102392.00;;;20.57;25.65
13478;BME280;12598;62.382;17.344;2022-11-15T06:48:20;102387.47;;;20.58;25.87
13478;BME280;12598;62.382;17.344;2022-11-15T06:49:40;102387.84;;;20.64;26.07
13478;BME280;12598;62.382;17.344;2022-11-15T06:51:02;102391.25;;;20.66;25.92
13478;BME280;12598;62.382;17.344;2022-11-15T06:52:23;102387.00;;;20.64;25.78
13478;BME280;12598;62.382;17.344;2022-11-15T06:53:43;102404.19;;;20.72;25.83
13478;BME280;12598;62.382;17.344;2022-11-15T06:55:03;102397.97;;;20.72;25.65
13478;BME280;12598;62.382;17.344;2022-11-15T06:56:24;102399.78;;;20.71;25.48
13478;BME280;12598;62.382;17.344;2022-11-15T06:57:51;102395.28;;;20.72;25.41
13478;BME280;12598;62.382;17.344;2022-11-15T06:59:12;102406.25;;;20.80;25.59
13478;BME280;12598;62.382;17.344;2022-11-15T07:00:32;102409.69;;;20.82;25.27
13478;BME280;12598;62.382;17.344;2022-11-15T07:01:52;102408.63;;;20.84;25.52
13478;BME280;12598;62.382;17.344;2022-11-15T07:03:12;102408.63;;;20.84;25.76
13478;BME280;12598;62.382;17.344;2022-11-15T07:04:33;102410.31;;;20.85;25.35
13478;BME280;12598;62.382;17.344;2022-11-15T07:05:55;102408.81;;;20.81;25.38
13478;BME280;12598;62.382;17.344;2022-11-15T07:07:21;102410.19;;;20.87;25.16
13478;BME280;12598;62.382;17.344;2022-11-15T07:08:42;102411.06;;;20.87;25.08
13478;BME280;12598;62.382;17.344;2022-11-15T07:10:02;102402.25;;;20.85;24.98
13478;BME280;12598;62.382;17.344;2022-11-15T07:11:22;102418.88;;;20.90;25.68
13478;BME280;12598;62.382;17.344;2022-11-15T07:12:47;102417.28;;;20.88;25.02
13478;BME280;12598;62.382;17.344;2022-11-15T07:14:07;102416.03;;;20.92;25.24
13478;BME280;12598;62.382;17.344;2022-11-15T07:15:27;102421.31;;;20.93;24.77
13478;BME280;12598;62.382;17.344;2022-11-15T07:16:48;102418.72;;;20.92;24.71
13478;BME280;12598;62.382;17.344;2022-11-15T07:18:08;102408.47;;;20.86;25.24
13478;BME280;12598;62.382;17.344;2022-11-15T07:19:28;102422.13;;;20.93;25.29
13478;BME280;12598;62.382;17.344;2022-11-15T07:20:49;102423.13;;;20.92;25.53
13478;BME280;12598;62.382;17.344;2022-11-15T07:22:09;102410.31;;;20.85;25.25
13478;BME280;12598;62.382;17.344;2022-11-15T07:23:30;102418.72;;;20.92;25.29
13478;BME280;12598;62.382;17.344;2022-11-15T07:24:51;102431.91;;;20.94;24.84
13478;BME280;12598;62.382;17.344;2022-11-15T07:26:11;102427.53;;;20.93;25.01
13478;BME280;12598;62.382;17.344;2022-11-15T07:27:32;102427.78;;;20.91;24.98
13478;BME280;12598;62.382;17.344;2022-11-15T07:28:52;102426.69;;;20.93;25.19
13478;BME280;12598;62.382;17.344;2022-11-15T07:30:13;102422.41;;;20.91;25.24
13478;BME280;12598;62.382;17.344;2022-11-15T07:31:34;102438.16;;;20.95;25.02
13478;BME280;12598;62.382;17.344;2022-11-15T07:32:58;102424.34;;;20.89;24.97
13478;BME280;12598;62.382;17.344;2022-11-15T07:34:19;102433.50;;;20.97;24.77